sensor_id;sensor_type;location;lat;lon;timestamp;P1;durP1;ratioP1;P2;durP2;ratioP2
6825;SDS011;3451;52.476;13.316;2022-09-09T00:00:40;6.33;;;5.57;;
6825;SDS011;3451;52.476;13.316;2022-09-09T00:03:24;6.03;;;5.43;;
6825;SDS011;3451;52.476;13.316;2022-09-09T00:08:42;6.37;;;5.77;;
6825;SDS011;3451;52.476;13.316;2022-09-09T00:11:12;6.43;;;5.70;;
6825;SDS011;3451;52.476;13.316;2022-09-09T00:13:43;8.23;;;5.90;;
6825;SDS011;3451;52.476;13.316;2022-09-09T00:16:15;7.67;;;5.87;;
6825;SDS011;3451;52.476;13.316;2022-09-09T00:19:06;8.30;;;6.17;;
6825;SDS011;3451;52.476;13.316;2022-09-09T00:21:37;7.27;;;6.00;;
6825;SDS011;3451;52.476;13.316;2022-09-09T00:27:01;7.97;;;5.47;;
6825;SDS011;3451;52.476;13.316;2022-09-09T00:29:35;6.37;;;5.77;;
6825;SDS011;3451;52.476;13.316;2022-09-09T00:32:16;6.17;;;5.43;;
6825;SDS011;3451;52.476;13.316;2022-09-09T00:34:51;6.93;;;5.47;;
6825;SDS011;3451;52.476;13.316;2022-09-09T00:37:19;6.57;;;5.87;;
6825;SDS011;3451;52.476;13.316;2022-09-09T00:39:46;6.10;;;5.23;;
6825;SDS011;3451;52.476;13.316;2022-09-09T00:42:15;7.50;;;5.93;;
6825;SDS011;3451;52.476;13.316;2022-09-09T00:44:51;6.70;;;6.03;;
6825;SDS011;3451;52.476;13.316;2022-09-09T00:47:25;7.43;;;5.80;;
6825;SDS011;3451;52.476;13.316;2022-09-09T00:50:03;6.63;;;5.70;;
6825;SDS011;3451;52.476;13.316;2022-09-09T00:52:40;6.27;;;5.33;;
6825;SDS011;3451;52.476;13.316;2022-09-09T00:58:16;6.93;;;5.70;;
6825;SDS011;3451;52.476;13.316;2022-09-09T01:00:52;7.80;;;5.63;;
6825;SDS011;3451;52.476;13.316;2022-09-09T01:06:01;6.73;;;5.67;;
6825;SDS011;3451;52.476;13.316;2022-09-09T01:11:24;7.10;;;5.77;;
6825;SDS011;3451;52.476;13.316;2022-09-09T01:16:36;6.97;;;5.77;;
6825;SDS011;3451;52.476;13.316;2022-09-09T01:19:03;7.53;;;6.50;;
6825;SDS011;3451;52.476;13.316;2022-09-09T01:26:51;7.77;;;5.93;;
6825;SDS011;3451;52.476;13.316;2022-09-09T01:29:18;7.73;;;6.37;;
6825;SDS011;3451;52.476;13.316;2022-09-09T01:34:48;6.77;;;6.07;;
6825;SDS011;3451;52.476;13.316;2022-09-09T01:37:14;7.10;;;6.00;;
6825;SDS011;3451;52.476;13.316;2022-09-09T01:39:41;6.67;;;5.97;;
6825;SDS011;3451;52.476;13.316;2022-09-09T01:42:10;7.07;;;6.10;;
6825;SDS011;3451;52.476;13.316;2022-09-09T01:44:37;7.83;;;6.13;;
6825;SDS011;3451;52.476;13.316;2022-09-09T01:47:04;7.43;;;6.20;;
6825;SDS011;3451;52.476;13.316;2022-09-09T01:49:30;7.60;;;5.47;;
6825;SDS011;3451;52.476;13.316;2022-09-09T01:51:58;6.93;;;6.10;;
6825;SDS011;3451;52.476;13.316;2022-09-09T01:54:26;6.93;;;6.27;;
6825;SDS011;3451;52.476;13.316;2022-09-09T01:59:24;7.10;;;6.20;;
6825;SDS011;3451;52.476;13.316;2022-09-09T02:06:56;7.43;;;5.73;;
6825;SDS011;3451;52.476;13.316;2022-09-09T02:09:25;8.03;;;6.13;;
6825;SDS011;3451;52.476;13.316;2022-09-09T02:11:55;6.40;;;5.80;;
6825;SDS011;3451;52.476;13.316;2022-09-09T02:14:26;6.80;;;5.77;;
6825;SDS011;3451;52.476;13.316;2022-09-09T02:19:53;8.30;;;6.20;;
6825;SDS011;3451;52.476;13.316;2022-09-09T02:22:22;6.43;;;5.83;;
6825;SDS011;3451;52.476;13.316;2022-09-09T02:24:49;6.93;;;5.43;;
6825;SDS011;3451;52.476;13.316;2022-09-09T02:27:16;6.87;;;5.87;;
6825;SDS011;3451;52.476;13.316;2022-09-09T02:29:44;6.83;;;6.13;;
6825;SDS011;3451;52.476;13.316;2022-09-09T02:32:20;7.97;;;6.13;;
6825;SDS011;3451;52.476;13.316;2022-09-09T02:34:55;7.47;;;5.63;;
6825;SDS011;3451;52.476;13.316;2022-09-09T02:37:23;7.63;;;5.63;;
6825;SDS011;3451;52.476;13.316;2022-09-09T02:39:54;9.23;;;6.30;;
6825;SDS011;3451;52.476;13.316;2022-09-09T02:42:21;10.20;;;5.93;;
6825;SDS011;3451;52.476;13.316;2022-09-09T02:44:47;9.90;;;6.13;;
6825;SDS011;3451;52.476;13.316;2022-09-09T02:47:20;8.13;;;6.17;;
6825;SDS011;3451;52.476;13.316;2022-09-09T02:52:26;7.20;;;6.00;;
6825;SDS011;3451;52.476;13.316;2022-09-09T02:54:57;7.00;;;5.43;;
6825;SDS011;3451;52.476;13.316;2022-09-09T02:57:27;8.63;;;5.83;;
6825;SDS011;3451;52.476;13.316;2022-09-09T02:59:56;7.07;;;5.60;;
6825;SDS011;3451;52.476;13.316;2022-09-09T03:02:22;8.87;;;6.17;;
6825;SDS011;3451;52.476;13.316;2022-09-09T03:04:50;6.43;;;5.57;;
6825;SDS011;3451;52.476;13.316;2022-09-09T03:07:18;8.43;;;5.90;;
6825;SDS011;3451;52.476;13.316;2022-09-09T03:09:44;6.10;;;5.47;;
6825;SDS011;3451;52.476;13.316;2022-09-09T03:12:11;7.77;;;5.70;;
6825;SDS011;3451;52.476;13.316;2022-09-09T03:14:38;9.80;;;5.70;;
6825;SDS011;3451;52.476;13.316;2022-09-09T03:17:04;6.70;;;5.60;;
6825;SDS011;3451;52.476;13.316;2022-09-09T03:19:31;8.90;;;5.83;;
6825;SDS011;3451;52.476;13.316;2022-09-09T03:21:58;6.93;;;5.47;;
6825;SDS011;3451;52.476;13.316;2022-09-09T03:24:24;10.73;;;5.80;;
6825;SDS011;3451;52.476;13.316;2022-09-09T03:26:51;6.63;;;5.80;;
6825;SDS011;3451;52.476;13.316;2022-09-09T03:29:17;6.50;;;5.90;;
6825;SDS011;3451;52.476;13.316;2022-09-09T03:31:44;6.63;;;5.40;;
6825;SDS011;3451;52.476;13.316;2022-09-09T03:34:11;7.63;;;5.17;;
6825;SDS011;3451;52.476;13.316;2022-09-09T03:36:37;7.27;;;5.73;;
6825;SDS011;3451;52.476;13.316;2022-09-09T03:39:03;5.90;;;5.20;;
6825;SDS011;3451;52.476;13.316;2022-09-09T03:41:29;7.17;;;5.43;;
6825;SDS011;3451;52.476;13.316;2022-09-09T03:43:56;6.37;;;5.73;;
6825;SDS011;3451;52.476;13.316;2022-09-09T03:46:23;6.43;;;5.57;;
6825;SDS011;3451;52.476;13.316;2022-09-09T03:48:49;6.40;;;5.40;;
6825;SDS011;3451;52.476;13.316;2022-09-09T03:51:16;7.33;;;4.97;;
6825;SDS011;3451;52.476;13.316;2022-09-09T03:53:43;8.00;;;5.53;;
6825;SDS011;3451;52.476;13.316;2022-09-09T03:56:10;8.30;;;5.20;;
6825;SDS011;3451;52.476;13.316;2022-09-09T03:58:36;7.80;;;5.30;;
6825;SDS011;3451;52.476;13.316;2022-09-09T04:01:04;8.47;;;5.63;;
6825;SDS011;3451;52.476;13.316;2022-09-09T04:03:30;6.70;;;4.93;;
6825;SDS011;3451;52.476;13.316;2022-09-09T04:05:58;8.13;;;5.40;;
6825;SDS011;3451;52.476;13.316;2022-09-09T04:08:24;5.53;;;5.03;;
6825;SDS011;3451;52.476;13.316;2022-09-09T04:10:53;10.70;;;5.23;;
6825;SDS011;3451;52.476;13.316;2022-09-09T04:13:24;6.30;;;4.90;;
6825;SDS011;3451;52.476;13.316;2022-09-09T04:15:51;6.40;;;5.00;;
6825;SDS011;3451;52.476;13.316;2022-09-09T04:18:18;6.40;;;4.90;;
6825;SDS011;3451;52.476;13.316;2022-09-09T04:20:46;6.57;;;4.87;;
6825;SDS011;3451;52.476;13.316;2022-09-09T04:23:12;6.53;;;4.90;;
6825;SDS011;3451;52.476;13.316;2022-09-09T04:25:49;6.10;;;5.40;;
6825;SDS011;3451;52.476;13.316;2022-09-09T04:28:16;5.63;;;4.87;;
6825;SDS011;3451;52.476;13.316;2022-09-09T04:30:43;9.07;;;5.17;;
6825;SDS011;3451;52.476;13.316;2022-09-09T04:33:10;7.57;;;5.20;;
6825;SDS011;3451;52.476;13.316;2022-09-09T04:35:36;6.77;;;5.50;;
6825;SDS011;3451;52.476;13.316;2022-09-09T04:38:04;8.00;;;4.80;;
6825;SDS011;3451;52.476;13.316;2022-09-09T04:40:31;7.13;;;4.90;;
6825;SDS011;3451;52.476;13.316;2022-09-09T04:42:58;5.83;;;4.87;;
6825;SDS011;3451;52.476;13.316;2022-09-09T04:45:24;6.07;;;5.07;;
6825;SDS011;3451;52.476;13.316;2022-09-09T04:47:52;8.13;;;4.90;;
6825;SDS011;3451;52.476;13.316;2022-09-09T04:50:18;6.73;;;4.73;;
6825;SDS011;3451;52.476;13.316;2022-09-09T04:52:44;8.90;;;5.10;;
6825;SDS011;3451;52.476;13.316;2022-09-09T04:55:11;5.37;;;4.87;;
6825;SDS011;3451;52.476;13.316;2022-09-09T04:57:39;6.07;;;4.90;;
6825;SDS011;3451;52.476;13.316;2022-09-09T05:00:06;7.90;;;4.83;;
6825;SDS011;3451;52.476;13.316;2022-09-09T05:02:32;6.77;;;5.00;;
6825;SDS011;3451;52.476;13.316;2022-09-09T05:04:59;5.70;;;4.80;;
6825;SDS011;3451;52.476;13.316;2022-09-09T05:07:26;6.17;;;4.60;;
6825;SDS011;3451;52.476;13.316;2022-09-09T05:09:53;5.87;;;4.80;;
6825;SDS011;3451;52.476;13.316;2022-09-09T05:12:19;7.23;;;5.20;;
6825;SDS011;3451;52.476;13.316;2022-09-09T05:14:45;8.63;;;4.43;;
6825;SDS011;3451;52.476;13.316;2022-09-09T05:17:12;8.17;;;4.70;;
6825;SDS011;3451;52.476;13.316;2022-09-09T05:19:39;9.33;;;5.03;;
6825;SDS011;3451;52.476;13.316;2022-09-09T05:22:05;5.53;;;4.40;;
6825;SDS011;3451;52.476;13.316;2022-09-09T05:24:31;6.50;;;4.33;;
6825;SDS011;3451;52.476;13.316;2022-09-09T05:26:59;7.60;;;4.23;;
6825;SDS011;3451;52.476;13.316;2022-09-09T05:29:28;6.87;;;4.70;;
6825;SDS011;3451;52.476;13.316;2022-09-09T05:31:54;7.20;;;4.27;;
6825;SDS011;3451;52.476;13.316;2022-09-09T05:34:20;5.83;;;4.27;;
6825;SDS011;3451;52.476;13.316;2022-09-09T05:36:47;6.47;;;4.47;;
6825;SDS011;3451;52.476;13.316;2022-09-09T05:39:13;10.13;;;4.27;;
6825;SDS011;3451;52.476;13.316;2022-09-09T05:41:40;6.67;;;4.43;;
6825;SDS011;3451;52.476;13.316;2022-09-09T05:44:06;6.97;;;4.87;;
6825;SDS011;3451;52.476;13.316;2022-09-09T05:46:32;6.47;;;3.97;;
6825;SDS011;3451;52.476;13.316;2022-09-09T05:48:59;9.77;;;4.47;;
6825;SDS011;3451;52.476;13.316;2022-09-09T05:51:27;5.33;;;4.30;;
6825;SDS011;3451;52.476;13.316;2022-09-09T05:53:54;6.13;;;4.30;;
6825;SDS011;3451;52.476;13.316;2022-09-09T05:56:27;7.33;;;3.83;;
6825;SDS011;3451;52.476;13.316;2022-09-09T05:58:53;6.37;;;3.77;;
6825;SDS011;3451;52.476;13.316;2022-09-09T06:03:49;9.13;;;3.70;;
6825;SDS011;3451;52.476;13.316;2022-09-09T06:06:17;6.83;;;3.90;;
6825;SDS011;3451;52.476;13.316;2022-09-09T06:08:46;10.47;;;3.97;;
6825;SDS011;3451;52.476;13.316;2022-09-09T06:11:23;5.13;;;3.70;;
6825;SDS011;3451;52.476;13.316;2022-09-09T06:13:50;3.90;;;3.17;;
6825;SDS011;3451;52.476;13.316;2022-09-09T06:16:20;6.77;;;4.10;;
6825;SDS011;3451;52.476;13.316;2022-09-09T06:18:49;4.63;;;3.30;;
6825;SDS011;3451;52.476;13.316;2022-09-09T06:21:20;6.80;;;3.60;;
6825;SDS011;3451;52.476;13.316;2022-09-09T06:23:47;7.73;;;3.90;;
6825;SDS011;3451;52.476;13.316;2022-09-09T06:26:20;6.43;;;3.40;;
6825;SDS011;3451;52.476;13.316;2022-09-09T06:28:47;4.10;;;2.93;;
6825;SDS011;3451;52.476;13.316;2022-09-09T06:31:15;7.43;;;2.90;;
6825;SDS011;3451;52.476;13.316;2022-09-09T06:33:43;4.27;;;3.00;;
6825;SDS011;3451;52.476;13.316;2022-09-09T06:36:14;6.60;;;3.03;;
6825;SDS011;3451;52.476;13.316;2022-09-09T06:38:41;5.97;;;2.80;;
6825;SDS011;3451;52.476;13.316;2022-09-09T06:41:08;4.30;;;2.60;;
6825;SDS011;3451;52.476;13.316;2022-09-09T06:43:35;8.83;;;3.27;;
6825;SDS011;3451;52.476;13.316;2022-09-09T06:46:03;8.07;;;3.07;;
6825;SDS011;3451;52.476;13.316;2022-09-09T06:48:30;7.20;;;3.00;;
6825;SDS011;3451;52.476;13.316;2022-09-09T06:51:03;4.27;;;3.17;;
6825;SDS011;3451;52.476;13.316;2022-09-09T06:53:30;6.60;;;3.07;;
6825;SDS011;3451;52.476;13.316;2022-09-09T06:55:57;18.77;;;3.47;;
6825;SDS011;3451;52.476;13.316;2022-09-09T06:58:23;8.73;;;2.73;;
6825;SDS011;3451;52.476;13.316;2022-09-09T07:00:49;5.53;;;2.70;;
6825;SDS011;3451;52.476;13.316;2022-09-09T07:03:16;4.20;;;2.27;;
6825;SDS011;3451;52.476;13.316;2022-09-09T07:05:42;6.70;;;2.30;;
6825;SDS011;3451;52.476;13.316;2022-09-09T07:08:10;6.33;;;2.23;;
6825;SDS011;3451;52.476;13.316;2022-09-09T07:10:36;6.40;;;2.13;;
6825;SDS011;3451;52.476;13.316;2022-09-09T07:13:03;6.22;;;2.00;;
6825;SDS011;3451;52.476;13.316;2022-09-09T07:15:31;4.63;;;1.95;;
6825;SDS011;3451;52.476;13.316;2022-09-09T07:18:02;3.65;;;1.60;;
6825;SDS011;3451;52.476;13.316;2022-09-09T07:20:29;4.65;;;1.80;;
6825;SDS011;3451;52.476;13.316;2022-09-09T07:22:55;5.78;;;1.85;;
6825;SDS011;3451;52.476;13.316;2022-09-09T07:25:22;4.88;;;1.77;;
6825;SDS011;3451;52.476;13.316;2022-09-09T07:27:48;5.30;;;1.63;;
6825;SDS011;3451;52.476;13.316;2022-09-09T07:30:15;4.03;;;1.55;;
6825;SDS011;3451;52.476;13.316;2022-09-09T07:32:51;3.10;;;1.25;;
6825;SDS011;3451;52.476;13.316;2022-09-09T07:35:17;5.85;;;1.42;;
6825;SDS011;3451;52.476;13.316;2022-09-09T07:37:44;4.88;;;1.50;;
6825;SDS011;3451;52.476;13.316;2022-09-09T07:40:16;5.55;;;1.67;;
6825;SDS011;3451;52.476;13.316;2022-09-09T07:42:42;3.60;;;1.35;;
6825;SDS011;3451;52.476;13.316;2022-09-09T07:45:08;3.13;;;1.65;;
6825;SDS011;3451;52.476;13.316;2022-09-09T07:47:34;1.85;;;1.27;;
6825;SDS011;3451;52.476;13.316;2022-09-09T07:50:01;4.22;;;1.50;;
6825;SDS011;3451;52.476;13.316;2022-09-09T07:52:27;3.90;;;1.38;;
6825;SDS011;3451;52.476;13.316;2022-09-09T07:54:54;3.00;;;1.63;;
6825;SDS011;3451;52.476;13.316;2022-09-09T07:57:21;4.90;;;1.58;;
6825;SDS011;3451;52.476;13.316;2022-09-09T07:59:48;2.40;;;1.20;;
6825;SDS011;3451;52.476;13.316;2022-09-09T08:02:14;2.97;;;1.35;;
6825;SDS011;3451;52.476;13.316;2022-09-09T08:04:40;3.25;;;1.58;;
6825;SDS011;3451;52.476;13.316;2022-09-09T08:07:06;4.43;;;1.57;;
6825;SDS011;3451;52.476;13.316;2022-09-09T08:09:33;3.73;;;1.40;;
6825;SDS011;3451;52.476;13.316;2022-09-09T08:11:59;4.23;;;1.40;;
6825;SDS011;3451;52.476;13.316;2022-09-09T08:14:28;3.28;;;1.45;;
6825;SDS011;3451;52.476;13.316;2022-09-09T08:16:54;3.63;;;1.30;;
6825;SDS011;3451;52.476;13.316;2022-09-09T08:19:21;5.20;;;1.10;;
6825;SDS011;3451;52.476;13.316;2022-09-09T08:21:47;2.97;;;1.60;;
6825;SDS011;3451;52.476;13.316;2022-09-09T08:24:15;4.40;;;1.60;;
6825;SDS011;3451;52.476;13.316;2022-09-09T08:26:42;4.93;;;1.63;;
6825;SDS011;3451;52.476;13.316;2022-09-09T08:29:09;5.60;;;1.40;;
6825;SDS011;3451;52.476;13.316;2022-09-09T08:31:37;3.10;;;1.57;;
6825;SDS011;3451;52.476;13.316;2022-09-09T08:34:04;4.60;;;1.57;;
6825;SDS011;3451;52.476;13.316;2022-09-09T08:36:34;4.30;;;1.40;;
6825;SDS011;3451;52.476;13.316;2022-09-09T08:39:02;4.00;;;1.83;;
6825;SDS011;3451;52.476;13.316;2022-09-09T08:41:31;5.80;;;1.50;;
6825;SDS011;3451;52.476;13.316;2022-09-09T08:44:23;4.13;;;1.40;;
6825;SDS011;3451;52.476;13.316;2022-09-09T08:46:49;5.53;;;1.47;;
6825;SDS011;3451;52.476;13.316;2022-09-09T08:49:34;3.33;;;1.40;;
6825;SDS011;3451;52.476;13.316;2022-09-09T08:52:06;4.57;;;1.53;;
6825;SDS011;3451;52.476;13.316;2022-09-09T08:54:36;6.70;;;1.40;;
6825;SDS011;3451;52.476;13.316;2022-09-09T08:57:25;6.07;;;1.33;;
6825;SDS011;3451;52.476;13.316;2022-09-09T08:59:56;3.03;;;1.30;;
6825;SDS011;3451;52.476;13.316;2022-09-09T09:05:03;7.10;;;1.60;;
6825;SDS011;3451;52.476;13.316;2022-09-09T09:10:35;5.57;;;1.50;;
6825;SDS011;3451;52.476;13.316;2022-09-09T09:16:02;3.77;;;1.53;;
6825;SDS011;3451;52.476;13.316;2022-09-09T09:18:30;3.33;;;1.70;;
6825;SDS011;3451;52.476;13.316;2022-09-09T09:23:34;2.57;;;1.30;;
6825;SDS011;3451;52.476;13.316;2022-09-09T09:26:05;3.17;;;1.60;;
6825;SDS011;3451;52.476;13.316;2022-09-09T09:28:33;3.00;;;1.20;;
6825;SDS011;3451;52.476;13.316;2022-09-09T09:31:03;3.13;;;1.37;;
6825;SDS011;3451;52.476;13.316;2022-09-09T09:34:04;4.93;;;1.80;;
6825;SDS011;3451;52.476;13.316;2022-09-09T09:36:32;8.70;;;1.83;;
6825;SDS011;3451;52.476;13.316;2022-09-09T09:39:00;4.37;;;1.43;;
6825;SDS011;3451;52.476;13.316;2022-09-09T09:41:46;2.83;;;1.10;;
6825;SDS011;3451;52.476;13.316;2022-09-09T09:44:24;3.93;;;1.37;;
6825;SDS011;3451;52.476;13.316;2022-09-09T09:46:50;3.53;;;1.20;;
6825;SDS011;3451;52.476;13.316;2022-09-09T09:49:17;3.20;;;1.37;;
6825;SDS011;3451;52.476;13.316;2022-09-09T09:51:43;3.77;;;1.20;;
6825;SDS011;3451;52.476;13.316;2022-09-09T09:56:39;4.33;;;1.17;;
6825;SDS011;3451;52.476;13.316;2022-09-09T09:59:18;3.43;;;1.27;;
6825;SDS011;3451;52.476;13.316;2022-09-09T10:02:05;3.10;;;1.23;;
6825;SDS011;3451;52.476;13.316;2022-09-09T10:04:32;3.53;;;1.20;;
6825;SDS011;3451;52.476;13.316;2022-09-09T10:06:59;4.33;;;1.40;;
6825;SDS011;3451;52.476;13.316;2022-09-09T10:09:35;3.20;;;1.37;;
6825;SDS011;3451;52.476;13.316;2022-09-09T10:12:05;6.37;;;1.30;;
6825;SDS011;3451;52.476;13.316;2022-09-09T10:14:40;3.73;;;1.20;;
6825;SDS011;3451;52.476;13.316;2022-09-09T10:17:14;2.93;;;1.20;;
6825;SDS011;3451;52.476;13.316;2022-09-09T10:20:12;4.70;;;1.27;;
6825;SDS011;3451;52.476;13.316;2022-09-09T10:22:32;4.87;;;1.20;;
6825;SDS011;3451;52.476;13.316;2022-09-09T10:27:42;3.00;;;1.07;;
6825;SDS011;3451;52.476;13.316;2022-09-09T10:32:41;3.80;;;1.47;;
6825;SDS011;3451;52.476;13.316;2022-09-09T10:35:10;2.30;;;1.10;;
6825;SDS011;3451;52.476;13.316;2022-09-09T10:42:54;6.30;;;1.40;;
6825;SDS011;3451;52.476;13.316;2022-09-09T10:50:40;2.70;;;1.17;;
6825;SDS011;3451;52.476;13.316;2022-09-09T10:55:59;4.97;;;1.47;;
6825;SDS011;3451;52.476;13.316;2022-09-09T10:58:34;4.10;;;1.27;;
6825;SDS011;3451;52.476;13.316;2022-09-09T11:01:05;4.50;;;1.20;;
6825;SDS011;3451;52.476;13.316;2022-09-09T11:03:35;3.10;;;1.30;;
6825;SDS011;3451;52.476;13.316;2022-09-09T11:06:04;6.27;;;1.27;;
6825;SDS011;3451;52.476;13.316;2022-09-09T11:08:33;2.60;;;1.00;;
6825;SDS011;3451;52.476;13.316;2022-09-09T11:11:02;3.50;;;1.17;;
6825;SDS011;3451;52.476;13.316;2022-09-09T11:16:16;4.13;;;1.20;;
6825;SDS011;3451;52.476;13.316;2022-09-09T11:18:45;3.43;;;0.90;;
6825;SDS011;3451;52.476;13.316;2022-09-09T11:21:22;5.07;;;1.03;;
6825;SDS011;3451;52.476;13.316;2022-09-09T11:23:51;2.37;;;0.97;;
6825;SDS011;3451;52.476;13.316;2022-09-09T11:26:21;3.00;;;1.03;;
6825;SDS011;3451;52.476;13.316;2022-09-09T11:31:21;2.63;;;1.03;;
6825;SDS011;3451;52.476;13.316;2022-09-09T11:36:27;2.93;;;1.13;;
6825;SDS011;3451;52.476;13.316;2022-09-09T11:39:01;0.97;;;0.60;;
6825;SDS011;3451;52.476;13.316;2022-09-09T11:41:33;2.63;;;1.00;;
6825;SDS011;3451;52.476;13.316;2022-09-09T11:44:08;3.27;;;1.00;;
6825;SDS011;3451;52.476;13.316;2022-09-09T11:46:36;3.40;;;0.90;;
6825;SDS011;3451;52.476;13.316;2022-09-09T11:49:05;2.30;;;0.90;;
6825;SDS011;3451;52.476;13.316;2022-09-09T11:51:32;4.47;;;0.90;;
6825;SDS011;3451;52.476;13.316;2022-09-09T11:53:59;3.70;;;1.10;;
6825;SDS011;3451;52.476;13.316;2022-09-09T11:56:28;2.77;;;0.90;;
6825;SDS011;3451;52.476;13.316;2022-09-09T11:58:57;2.60;;;0.87;;
6825;SDS011;3451;52.476;13.316;2022-09-09T12:01:26;3.00;;;0.90;;
6825;SDS011;3451;52.476;13.316;2022-09-09T12:06:42;4.03;;;1.03;;
6825;SDS011;3451;52.476;13.316;2022-09-09T12:09:17;6.63;;;1.20;;
6825;SDS011;3451;52.476;13.316;2022-09-09T12:11:44;3.67;;;1.17;;
6825;SDS011;3451;52.476;13.316;2022-09-09T12:14:20;2.73;;;1.10;;
6825;SDS011;3451;52.476;13.316;2022-09-09T12:16:47;1.60;;;0.87;;
6825;SDS011;3451;52.476;13.316;2022-09-09T12:19:14;2.57;;;0.90;;
6825;SDS011;3451;52.476;13.316;2022-09-09T12:21:46;3.80;;;1.20;;
6825;SDS011;3451;52.476;13.316;2022-09-09T12:24:17;3.23;;;1.10;;
6825;SDS011;3451;52.476;13.316;2022-09-09T12:26:58;2.13;;;0.70;;
6825;SDS011;3451;52.476;13.316;2022-09-09T12:32:30;1.93;;;0.90;;
6825;SDS011;3451;52.476;13.316;2022-09-09T12:35:31;5.07;;;0.90;;
6825;SDS011;3451;52.476;13.316;2022-09-09T12:37:51;2.93;;;0.80;;
6825;SDS011;3451;52.476;13.316;2022-09-09T12:40:21;2.97;;;0.90;;
6825;SDS011;3451;52.476;13.316;2022-09-09T12:42:48;1.67;;;0.73;;
6825;SDS011;3451;52.476;13.316;2022-09-09T12:45:15;2.87;;;1.00;;
6825;SDS011;3451;52.476;13.316;2022-09-09T12:47:50;5.03;;;1.13;;
6825;SDS011;3451;52.476;13.316;2022-09-09T12:50:18;1.90;;;0.80;;
6825;SDS011;3451;52.476;13.316;2022-09-09T12:52:45;5.80;;;1.43;;
6825;SDS011;3451;52.476;13.316;2022-09-09T12:55:17;3.13;;;1.30;;
6825;SDS011;3451;52.476;13.316;2022-09-09T12:57:44;3.93;;;1.03;;
6825;SDS011;3451;52.476;13.316;2022-09-09T13:00:14;2.93;;;0.80;;
6825;SDS011;3451;52.476;13.316;2022-09-09T13:03:01;2.93;;;1.00;;
6825;SDS011;3451;52.476;13.316;2022-09-09T13:08:00;2.40;;;0.90;;
6825;SDS011;3451;52.476;13.316;2022-09-09T13:10:28;2.93;;;1.27;;
6825;SDS011;3451;52.476;13.316;2022-09-09T13:13:20;4.27;;;1.00;;
6825;SDS011;3451;52.476;13.316;2022-09-09T13:15:51;2.97;;;1.03;;
6825;SDS011;3451;52.476;13.316;2022-09-09T13:18:20;4.40;;;1.10;;
6825;SDS011;3451;52.476;13.316;2022-09-09T13:20:48;3.27;;;1.00;;
6825;SDS011;3451;52.476;13.316;2022-09-09T13:23:15;2.93;;;1.00;;
6825;SDS011;3451;52.476;13.316;2022-09-09T13:25:52;2.73;;;1.07;;
6825;SDS011;3451;52.476;13.316;2022-09-09T13:28:23;2.13;;;0.90;;
6825;SDS011;3451;52.476;13.316;2022-09-09T13:31:00;4.60;;;0.90;;
6825;SDS011;3451;52.476;13.316;2022-09-09T13:33:33;3.97;;;1.03;;
6825;SDS011;3451;52.476;13.316;2022-09-09T13:36:02;2.83;;;1.00;;
6825;SDS011;3451;52.476;13.316;2022-09-09T13:38:31;2.30;;;1.10;;
6825;SDS011;3451;52.476;13.316;2022-09-09T13:41:02;3.73;;;1.30;;
6825;SDS011;3451;52.476;13.316;2022-09-09T13:43:52;4.27;;;1.17;;
6825;SDS011;3451;52.476;13.316;2022-09-09T13:46:24;3.63;;;1.30;;
6825;SDS011;3451;52.476;13.316;2022-09-09T13:48:55;2.43;;;1.00;;
6825;SDS011;3451;52.476;13.316;2022-09-09T13:51:26;10.10;;;1.17;;
6825;SDS011;3451;52.476;13.316;2022-09-09T13:53:54;4.17;;;1.00;;
6825;SDS011;3451;52.476;13.316;2022-09-09T13:56:20;4.60;;;1.10;;
6825;SDS011;3451;52.476;13.316;2022-09-09T13:58:47;2.90;;;1.20;;
6825;SDS011;3451;52.476;13.316;2022-09-09T14:01:13;2.90;;;1.00;;
6825;SDS011;3451;52.476;13.316;2022-09-09T14:03:39;5.43;;;1.63;;
6825;SDS011;3451;52.476;13.316;2022-09-09T14:06:06;3.23;;;1.27;;
6825;SDS011;3451;52.476;13.316;2022-09-09T14:08:33;9.17;;;0.90;;
6825;SDS011;3451;52.476;13.316;2022-09-09T14:11:03;3.57;;;1.00;;
6825;SDS011;3451;52.476;13.316;2022-09-09T14:13:30;3.60;;;0.90;;
6825;SDS011;3451;52.476;13.316;2022-09-09T14:15:57;1.73;;;0.93;;
6825;SDS011;3451;52.476;13.316;2022-09-09T14:18:23;2.97;;;1.17;;
6825;SDS011;3451;52.476;13.316;2022-09-09T14:20:51;2.83;;;1.13;;
6825;SDS011;3451;52.476;13.316;2022-09-09T14:23:17;3.47;;;1.10;;
6825;SDS011;3451;52.476;13.316;2022-09-09T14:25:45;3.00;;;0.93;;
6825;SDS011;3451;52.476;13.316;2022-09-09T14:28:12;2.87;;;1.00;;
6825;SDS011;3451;52.476;13.316;2022-09-09T14:30:39;3.63;;;1.23;;
6825;SDS011;3451;52.476;13.316;2022-09-09T14:33:06;3.43;;;0.97;;
6825;SDS011;3451;52.476;13.316;2022-09-09T14:35:32;2.63;;;1.00;;
6825;SDS011;3451;52.476;13.316;2022-09-09T14:37:59;2.80;;;0.97;;
6825;SDS011;3451;52.476;13.316;2022-09-09T14:40:27;2.10;;;0.80;;
6825;SDS011;3451;52.476;13.316;2022-09-09T14:42:53;4.90;;;0.93;;
6825;SDS011;3451;52.476;13.316;2022-09-09T14:45:19;5.10;;;0.90;;
6825;SDS011;3451;52.476;13.316;2022-09-09T14:47:47;4.10;;;1.10;;
6825;SDS011;3451;52.476;13.316;2022-09-09T14:50:15;2.23;;;0.90;;
6825;SDS011;3451;52.476;13.316;2022-09-09T14:52:41;3.00;;;1.00;;
6825;SDS011;3451;52.476;13.316;2022-09-09T14:55:07;3.57;;;1.20;;
6825;SDS011;3451;52.476;13.316;2022-09-09T14:57:34;1.10;;;0.90;;
6825;SDS011;3451;52.476;13.316;2022-09-09T15:00:04;2.57;;;0.93;;
6825;SDS011;3451;52.476;13.316;2022-09-09T15:02:32;1.77;;;0.93;;
6825;SDS011;3451;52.476;13.316;2022-09-09T15:04:58;3.27;;;1.03;;
6825;SDS011;3451;52.476;13.316;2022-09-09T15:07:25;4.83;;;1.23;;
6825;SDS011;3451;52.476;13.316;2022-09-09T15:09:51;5.57;;;1.37;;
6825;SDS011;3451;52.476;13.316;2022-09-09T15:12:19;2.97;;;1.03;;
6825;SDS011;3451;52.476;13.316;2022-09-09T15:14:45;1.77;;;0.90;;
6825;SDS011;3451;52.476;13.316;2022-09-09T15:17:11;3.20;;;1.10;;
6825;SDS011;3451;52.476;13.316;2022-09-09T15:19:38;2.03;;;1.03;;
6825;SDS011;3451;52.476;13.316;2022-09-09T15:22:04;1.90;;;0.97;;
6825;SDS011;3451;52.476;13.316;2022-09-09T15:24:34;3.10;;;1.03;;
6825;SDS011;3451;52.476;13.316;2022-09-09T15:27:01;2.00;;;1.00;;
6825;SDS011;3451;52.476;13.316;2022-09-09T15:29:27;3.20;;;1.07;;
6825;SDS011;3451;52.476;13.316;2022-09-09T15:31:54;2.27;;;1.10;;
6825;SDS011;3451;52.476;13.316;2022-09-09T15:34:21;6.83;;;1.40;;
6825;SDS011;3451;52.476;13.316;2022-09-09T15:36:47;4.47;;;0.90;;
6825;SDS011;3451;52.476;13.316;2022-09-09T15:39:15;2.23;;;1.00;;
6825;SDS011;3451;52.476;13.316;2022-09-09T15:41:45;3.30;;;0.90;;
6825;SDS011;3451;52.476;13.316;2022-09-09T15:44:11;3.13;;;1.10;;
6825;SDS011;3451;52.476;13.316;2022-09-09T15:46:39;1.73;;;0.90;;
6825;SDS011;3451;52.476;13.316;2022-09-09T15:49:07;2.03;;;0.80;;
6825;SDS011;3451;52.476;13.316;2022-09-09T15:51:35;3.57;;;0.90;;
6825;SDS011;3451;52.476;13.316;2022-09-09T15:54:09;2.60;;;1.03;;
6825;SDS011;3451;52.476;13.316;2022-09-09T15:56:35;3.60;;;1.33;;
6825;SDS011;3451;52.476;13.316;2022-09-09T15:59:02;3.03;;;1.03;;
6825;SDS011;3451;52.476;13.316;2022-09-09T16:01:31;2.10;;;0.87;;
6825;SDS011;3451;52.476;13.316;2022-09-09T16:03:58;4.13;;;1.10;;
6825;SDS011;3451;52.476;13.316;2022-09-09T16:06:26;3.67;;;1.10;;
6825;SDS011;3451;52.476;13.316;2022-09-09T16:08:53;4.40;;;1.10;;
6825;SDS011;3451;52.476;13.316;2022-09-09T16:11:24;1.83;;;0.90;;
6825;SDS011;3451;52.476;13.316;2022-09-09T16:13:51;5.77;;;1.07;;
6825;SDS011;3451;52.476;13.316;2022-09-09T16:16:18;4.07;;;1.10;;
6825;SDS011;3451;52.476;13.316;2022-09-09T16:18:46;3.23;;;0.80;;
6825;SDS011;3451;52.476;13.316;2022-09-09T16:21:21;3.37;;;1.07;;
6825;SDS011;3451;52.476;13.316;2022-09-09T16:23:48;3.40;;;1.20;;
6825;SDS011;3451;52.476;13.316;2022-09-09T16:26:15;3.87;;;1.20;;
6825;SDS011;3451;52.476;13.316;2022-09-09T16:28:42;3.13;;;1.30;;
6825;SDS011;3451;52.476;13.316;2022-09-09T16:31:10;3.60;;;1.10;;
6825;SDS011;3451;52.476;13.316;2022-09-09T16:33:37;2.53;;;1.47;;
6825;SDS011;3451;52.476;13.316;2022-09-09T16:36:07;3.37;;;1.00;;
6825;SDS011;3451;52.476;13.316;2022-09-09T16:38:34;3.17;;;1.10;;
6825;SDS011;3451;52.476;13.316;2022-09-09T16:41:02;3.13;;;1.30;;